createdAt,value
2018-02-27T00:02:03.587Z,91.9
2018-02-27T00:07:03.255Z,91.9
2018-02-27T00:12:03.574Z,91.4
2018-02-27T00:17:03.691Z,91.4
2018-02-27T00:22:03.766Z,91.0
2018-02-27T00:27:03.856Z,91.0
2018-02-27T00:32:03.981Z,91.3
2018-02-27T00:37:03.960Z,91.3
2018-02-27T00:42:02.996Z,91.2
2018-02-27T00:47:03.128Z,91.2
2018-02-27T00:52:03.638Z,90.8
2018-02-27T00:57:03.699Z,90.7
2018-02-27T01:02:03.794Z,90.6
2018-02-27T01:07:03.758Z,90.4
2018-02-27T01:12:03.977Z,90.4
2018-02-27T01:17:04.005Z,90.6
2018-02-27T01:22:03.756Z,90.4
2018-02-27T01:27:03.790Z,90.6
2018-02-27T01:32:03.801Z,90.6
2018-02-27T01:37:03.523Z,90.9
2018-02-27T01:42:03.502Z,91.0
2018-02-27T01:47:03.567Z,91.0
2018-02-27T01:52:03.147Z,91.2
2018-02-27T01:57:03.239Z,90.9
2018-02-27T02:02:03.367Z,90.6
2018-02-27T02:07:03.180Z,90.6
2018-02-27T02:12:03.457Z,90.5
2018-02-27T02:17:03.632Z,90.4
2018-02-27T02:22:03.291Z,90.4
2018-02-27T02:27:03.267Z,90.0
2018-02-27T02:32:03.390Z,90.0
2018-02-27T02:37:03.357Z,89.9
2018-02-27T02:42:03.401Z,89.7
2018-02-27T02:47:03.552Z,89.8
2018-02-27T02:52:03.533Z,89.8
2018-02-27T02:57:03.596Z,89.6
2018-02-27T03:02:03.636Z,90.1
2018-02-27T03:07:03.765Z,90.1
2018-02-27T03:12:03.882Z,90.1
2018-02-27T03:17:04.080Z,89.9
2018-02-27T03:22:03.183Z,89.2
2018-02-27T03:27:03.261Z,89.1
2018-02-27T03:32:03.365Z,89.1
2018-02-27T03:37:03.219Z,89.0
2018-02-27T03:42:03.230Z,89.0
2018-02-27T03:47:03.466Z,89.2
2018-02-27T03:52:03.476Z,89.0
2018-02-27T03:57:03.524Z,89.5
2018-02-27T04:02:03.675Z,89.4
2018-02-27T04:07:03.787Z,89.0
2018-02-27T04:12:03.137Z,89.1
2018-02-27T04:17:03.516Z,88.9
2018-02-27T04:22:03.504Z,88.9
2018-02-27T04:27:03.574Z,89.4
2018-02-27T04:32:03.686Z,89.2
2018-02-27T04:37:03.400Z,88.9
2018-02-27T04:42:03.504Z,88.7
2018-02-27T04:47:03.554Z,89.0
2018-02-27T04:52:03.128Z,88.9
2018-02-27T04:57:03.273Z,89.4
2018-02-27T05:02:03.422Z,89.8
2018-02-27T05:07:03.529Z,89.7
2018-02-27T05:12:03.798Z,89.5
2018-02-27T05:17:03.984Z,89.4
2018-02-27T05:22:03.055Z,89.6
2018-02-27T05:27:03.282Z,89.3
2018-02-27T05:32:03.731Z,89.4
2018-02-27T05:37:03.602Z,89.3
2018-02-27T05:42:03.689Z,89.1
2018-02-27T05:47:23.310Z,89.3
2018-02-27T05:52:03.227Z,88.9
2018-02-27T05:57:03.510Z,88.7
2018-02-27T06:02:27.308Z,88.4
2018-02-27T06:07:03.223Z,88.9
2018-02-27T06:12:03.435Z,88.7
2018-02-27T06:17:25.731Z,88.5
2018-02-27T06:22:03.634Z,88.5
2018-02-27T06:27:03.786Z,88.6
2018-02-27T06:32:22.351Z,88.9
2018-02-27T06:37:03.073Z,88.8
2018-02-27T06:42:03.260Z,89.6
2018-02-27T06:47:21.838Z,89.4
2018-02-27T06:52:03.634Z,90.0
2018-02-27T06:57:03.692Z,89.9
2018-02-27T07:02:24.917Z,89.9
2018-02-27T07:07:03.214Z,89.7
2018-02-27T07:12:03.520Z,90.2
2018-02-27T07:17:21.055Z,91.0
2018-02-27T07:22:03.420Z,90.9
2018-02-27T07:27:03.597Z,90.7
2018-02-27T07:32:25.215Z,90.1
2018-02-27T07:37:03.048Z,90.1
2018-02-27T07:42:03.133Z,90.0
2018-02-27T07:47:25.989Z,89.4
2018-02-27T07:52:03.651Z,89.8
2018-02-27T07:57:03.767Z,89.8
2018-02-27T08:02:21.581Z,88.6
2018-02-27T08:07:03.351Z,88.9
2018-02-27T09:02:24.418Z,88.7
2018-02-27T09:07:03.503Z,88.1
2018-02-27T09:12:03.651Z,87.6
2018-02-27T09:17:24.846Z,86.5
2018-02-27T09:22:02.989Z,86.3
2018-02-27T09:27:03.202Z,88.0
2018-02-27T09:32:21.488Z,89.6
2018-02-27T09:37:03.628Z,90.8
2018-02-27T09:42:03.740Z,88.2
2018-02-27T09:47:22.024Z,89.2
2018-02-27T09:52:03.108Z,89.0
2018-02-27T09:57:03.184Z,91.2
2018-02-27T10:02:23.269Z,88.6
2018-02-27T10:07:03.705Z,88.2
2018-02-27T10:12:03.916Z,87.0
2018-02-27T10:17:21.182Z,88.8
2018-02-27T10:22:03.322Z,88.8
2018-02-27T10:27:03.533Z,88.8
2018-02-27T10:32:22.005Z,88.5
2018-02-27T10:37:03.862Z,89.1
2018-02-27T10:42:03.012Z,88.0
2018-02-27T10:47:22.565Z,89.1
2018-02-27T10:52:03.352Z,89.0
2018-02-27T10:57:03.520Z,86.8
2018-02-27T11:02:25.834Z,89.0
2018-02-27T11:07:03.935Z,87.1
2018-02-27T11:12:03.169Z,86.9
2018-02-27T11:17:22.918Z,86.8
2018-02-27T11:22:03.656Z,89.2
2018-02-27T11:27:03.798Z,89.1
2018-02-27T11:32:23.757Z,86.4
2018-02-27T11:37:03.074Z,86.3
2018-02-27T11:42:02.976Z,87.4
2018-02-27T11:47:19.062Z,86.6
2018-02-27T11:52:03.272Z,86.5
2018-02-27T11:57:03.420Z,89.2
2018-02-27T12:02:20.437Z,90.1
2018-02-27T12:07:03.938Z,92.2
2018-02-27T12:12:03.271Z,91.4
2018-02-27T12:17:23.042Z,91.3
2018-02-27T12:22:03.749Z,84.6
2018-02-27T12:27:03.758Z,84.5
2018-02-27T12:32:24.764Z,88.2
2018-02-27T12:37:03.052Z,89.9
2018-02-27T12:42:03.181Z,91.7
2018-02-27T12:47:22.949Z,92.1
2018-02-27T12:52:03.455Z,89.9
2018-02-27T12:57:03.662Z,89.9
2018-02-27T13:02:23.606Z,90.1
2018-02-27T13:07:03.030Z,91.2
2018-02-27T13:12:03.288Z,91.0
2018-02-27T13:17:20.440Z,91.8
2018-02-27T13:22:03.683Z,91.3
2018-02-27T13:27:03.834Z,91.8
2018-02-27T13:32:22.329Z,92.3
2018-02-27T13:37:03.094Z,90.2
2018-02-27T13:42:03.220Z,88.1
2018-02-27T13:47:21.611Z,87.9
2018-02-27T13:52:03.485Z,91.4
2018-02-27T13:57:03.662Z,92.4
2018-02-27T14:02:24.195Z,91.9
2018-02-27T14:07:03.184Z,91.8
2018-02-27T14:12:03.389Z,93.8
2018-02-27T14:17:21.096Z,88.1
2018-02-27T14:22:03.889Z,88.8
2018-02-27T14:27:03.022Z,88.8
2018-02-27T14:32:22.033Z,89.1
2018-02-27T14:37:03.432Z,89.6
2018-02-27T14:42:03.416Z,90.6
2018-02-27T14:47:20.435Z,90.5
2018-02-27T14:52:03.874Z,91.0
2018-02-27T14:57:03.979Z,86.6
2018-02-27T15:02:21.176Z,87.3
2018-02-27T15:07:03.455Z,87.3
2018-02-27T15:12:03.683Z,90.6
2018-02-27T15:17:22.114Z,88.8
2018-02-27T15:22:03.040Z,86.5
2018-02-27T15:27:03.187Z,86.4
2018-02-27T15:32:21.298Z,87.0
2018-02-27T15:37:03.412Z,86.8
2018-02-27T15:42:03.602Z,85.3
2018-02-27T15:47:21.408Z,85.2
2018-02-27T15:52:02.918Z,86.4
2018-02-27T15:57:03.110Z,86.9
2018-02-27T16:02:20.465Z,88.2
2018-02-27T16:07:03.769Z,88.1
2018-02-27T16:12:03.994Z,85.8
2018-02-27T16:17:20.734Z,87.8
2018-02-27T16:22:03.387Z,87.8
2018-02-27T16:27:03.670Z,89.2
2018-02-27T16:32:23.623Z,89.7
2018-02-27T16:37:03.950Z,89.8
2018-02-27T16:42:03.001Z,89.8
2018-02-27T16:47:21.040Z,90.8
2018-02-27T16:52:03.476Z,90.6
2018-02-27T16:57:03.566Z,90.7
2018-02-27T17:02:20.958Z,91.0
2018-02-27T17:07:03.585Z,90.9
2018-02-27T17:12:03.250Z,91.3
2018-02-27T17:17:24.320Z,91.5
2018-02-27T17:22:03.297Z,91.4
2018-02-27T17:27:03.486Z,91.4
2018-02-27T17:32:23.726Z,91.9
2018-02-27T17:37:03.869Z,91.8
2018-02-27T17:42:03.160Z,92.6
2018-02-27T17:47:05.348Z,92.9
2018-02-27T17:52:03.541Z,92.8
2018-02-27T17:57:04.546Z,93.0
2018-02-27T18:07:04.351Z,92.6
2018-02-27T18:12:04.329Z,92.6
2018-02-27T18:17:05.136Z,92.7
2018-02-27T18:22:05.632Z,92.8
2018-02-27T18:27:04.669Z,92.5
2018-02-27T18:32:05.164Z,92.5
2018-02-27T18:37:03.059Z,92.5
2018-02-27T18:42:03.225Z,92.2
2018-02-27T18:47:03.447Z,92.4
2018-02-27T18:52:03.465Z,92.3
2018-02-27T18:57:03.554Z,92.5
2018-02-27T19:02:03.979Z,92.4
2018-02-27T19:07:03.949Z,92.2
2018-02-27T19:12:03.241Z,91.8
2018-02-27T19:17:03.587Z,91.8
2018-02-27T19:22:03.620Z,92.0
2018-02-27T19:27:03.617Z,91.9
2018-02-27T19:32:03.709Z,92.1
2018-02-27T19:37:03.825Z,91.9
2018-02-27T19:42:03.870Z,91.6
2018-02-27T19:47:03.426Z,91.5
2018-02-27T19:52:03.455Z,91.5
2018-02-27T19:57:03.689Z,91.6
2018-02-27T20:02:03.993Z,91.5
2018-02-27T20:07:04.026Z,91.6
2018-02-27T20:12:03.944Z,91.0
2018-02-27T20:17:04.646Z,90.8
2018-02-27T20:22:03.583Z,91.2
2018-02-27T20:27:03.435Z,91.1
2018-02-27T20:32:03.806Z,91.6
2018-02-27T20:37:03.596Z,91.8
2018-02-27T20:42:03.928Z,91.6
2018-02-27T20:47:03.722Z,91.6
2018-02-27T20:52:03.899Z,91.1
2018-02-27T20:57:03.053Z,91.0
2018-02-27T21:02:04.568Z,90.8
2018-02-27T21:07:03.311Z,90.6
2018-02-27T21:12:03.607Z,91.1
2018-02-27T21:17:05.305Z,91.1
2018-02-27T21:22:04.169Z,91.1
2018-02-27T21:27:03.981Z,90.9
2018-02-27T21:32:03.964Z,90.8
2018-02-27T21:37:03.322Z,90.9
2018-02-27T21:42:03.377Z,90.8
2018-02-27T21:47:03.486Z,90.7
2018-02-27T21:52:03.734Z,90.5
2018-02-27T21:57:03.628Z,90.4
2018-02-27T22:02:03.712Z,89.8
2018-02-27T22:07:04.009Z,89.7
2018-02-27T22:12:03.264Z,90.2
2018-02-27T22:17:03.602Z,90.1
2018-02-27T22:22:03.575Z,90.0
2018-02-27T22:27:03.657Z,90.1
2018-02-27T22:32:03.750Z,90.0
2018-02-27T22:37:03.878Z,89.8
2018-02-27T22:42:03.875Z,89.5
2018-02-27T22:47:04.039Z,89.4
2018-02-27T22:52:03.133Z,89.5
2018-02-27T22:57:03.310Z,89.6
2018-02-27T23:02:03.571Z,89.6
2018-02-27T23:07:03.467Z,89.3
2018-02-27T23:12:03.730Z,89.3
2018-02-27T23:22:03.418Z,88.2
2018-02-27T23:27:03.230Z,88.5
2018-02-27T23:32:03.205Z,88.2
2018-02-27T23:37:03.847Z,88.0
2018-02-27T23:42:03.730Z,88.4
2018-02-27T23:47:03.864Z,88.9
2018-02-27T23:52:03.524Z,88.8
2018-02-27T23:57:03.600Z,88.9
